Time;durP1;ratioP1;P1;durP2;ratioP2;P2;SDS_P1;SDS_P2;PMS_P1;PMS_P2;Temp;Humidity;BMP_temperature;BMP_pressure;BME280_temperature;BME280_humidity;BME280_pressure;Samples;Min_cycle;Max_cycle;Signal;HPM_P1;HPM_P2
2023/01/05 00:02:03;;;;;;;8.98;6.18;;;;;;;;;;5038973;28;20021;-74
2023/01/05 00:04:29;;;;;;;10.02;5.60;;;;;;;;;;5035015;28;20122;-73
2023/01/05 00:06:55;;;;;;;11.10;5.60;;;;;;;;;;5039434;28;20502;-74
2023/01/05 00:09:21;;;;;;;6.07;5.35;;;;;;;;;;5042328;28;20078;-74
2023/01/05 00:22:59;;;;;;;9.70;4.45;;;;;;;;;;5041240;28;20122;-73
2023/01/05 00:25:29;;;;;;;5.90;4.80;;;;;;;;;;5042006;28;20509;-74
2023/01/05 00:27:57;;;;;;;5.55;4.78;;;;;;;;;;5040477;28;20035;-74
2023/01/05 00:30:43;;;;;;;5.88;4.50;;;;;;;;;;5039538;28;20037;-74
2023/01/05 00:33:13;;;;;;;6.13;4.88;;;;;;;;;;5042980;28;20351;-74
2023/01/05 00:35:39;;;;;;;6.88;4.45;;;;;;;;;;5040581;28;20167;-73
2023/01/05 00:38:07;;;;;;;6.53;4.18;;;;;;;;;;5039070;28;20064;-74
2023/01/05 00:40:34;;;;;;;5.95;4.40;;;;;;;;;;5040212;28;20378;-73
2023/01/05 00:43:00;;;;;;;8.05;4.82;;;;;;;;;;5042168;28;20024;-74
2023/01/05 00:45:26;;;;;;;4.97;4.13;;;;;;;;;;5043025;28;20040;-73
2023/01/05 00:47:53;;;;;;;6.88;5.00;;;;;;;;;;5040592;28;20119;-73
2023/01/05 00:50:20;;;;;;;6.30;5.15;;;;;;;;;;5037560;28;20043;-73
2023/01/05 00:52:47;;;;;;;9.85;5.18;;;;;;;;;;5041402;28;20029;-73
2023/01/05 00:55:13;;;;;;;6.47;5.25;;;;;;;;;;5043707;28;20421;-74
2023/01/05 00:57:39;;;;;;;6.53;5.45;;;;;;;;;;5040020;28;20128;-73
2023/01/05 01:00:06;;;;;;;9.82;5.45;;;;;;;;;;5040672;28;20074;-73
2023/01/05 01:02:33;;;;;;;8.43;5.57;;;;;;;;;;5037040;28;20593;-74
2023/01/05 01:04:59;;;;;;;8.73;5.40;;;;;;;;;;5044636;28;20033;-73
2023/01/05 01:07:25;;;;;;;6.50;5.28;;;;;;;;;;5043030;28;20160;-73
2023/01/05 01:09:51;;;;;;;7.45;5.07;;;;;;;;;;5040852;28;20021;-73
2023/01/05 01:12:17;;;;;;;10.52;6.50;;;;;;;;;;5040179;28;20025;-73
2023/01/05 01:14:46;;;;;;;8.15;5.65;;;;;;;;;;5040430;28;20470;-74
2023/01/05 01:17:12;;;;;;;7.72;5.28;;;;;;;;;;5044561;28;20044;-73
2023/01/05 01:19:38;;;;;;;7.55;5.10;;;;;;;;;;5042340;28;20052;-73
2023/01/05 01:22:05;;;;;;;8.77;5.18;;;;;;;;;;5042891;28;20036;-74
2023/01/05 01:24:31;;;;;;;6.13;5.43;;;;;;;;;;5038540;28;20108;-74
2023/01/05 01:26:57;;;;;;;6.28;4.75;;;;;;;;;;5042306;28;20017;-74
2023/01/05 01:29:23;;;;;;;5.70;4.70;;;;;;;;;;5043276;28;20099;-74
2023/01/05 01:31:50;;;;;;;7.45;5.10;;;;;;;;;;5039470;28;20087;-74
2023/01/05 01:34:17;;;;;;;7.78;4.90;;;;;;;;;;5041389;28;20025;-73
2023/01/05 01:36:43;;;;;;;6.18;4.95;;;;;;;;;;5040445;28;20394;-73
2023/01/05 01:39:10;;;;;;;6.88;4.68;;;;;;;;;;5043474;28;20040;-74
2023/01/05 01:41:36;;;;;;;9.27;4.85;;;;;;;;;;5039865;28;20108;-73
2023/01/05 01:44:02;;;;;;;8.15;4.65;;;;;;;;;;5043928;28;20078;-73
2023/01/05 01:46:29;;;;;;;8.98;5.60;;;;;;;;;;5038911;28;20021;-73
2023/01/05 01:49:00;;;;;;;6.53;4.97;;;;;;;;;;5042111;28;20110;-73
2023/01/05 01:51:29;;;;;;;6.60;5.90;;;;;;;;;;5042811;28;20078;-74
2023/01/05 01:53:57;;;;;;;6.70;5.30;;;;;;;;;;5039767;28;20163;-73
2023/01/05 01:56:25;;;;;;;8.32;5.32;;;;;;;;;;5040360;28;20021;-74
2023/01/05 01:58:51;;;;;;;6.13;4.90;;;;;;;;;;5046747;28;20543;-74
2023/01/05 02:01:18;;;;;;;6.63;5.03;;;;;;;;;;5037063;28;20033;-74
2023/01/05 02:03:44;;;;;;;6.90;5.10;;;;;;;;;;5037903;28;20489;-75
2023/01/05 02:06:10;;;;;;;5.93;4.70;;;;;;;;;;5036256;28;20453;-75
2023/01/05 02:08:36;;;;;;;7.57;5.20;;;;;;;;;;5032988;28;20040;-74
2023/01/05 02:11:18;;;;;;;6.70;5.40;;;;;;;;;;5037290;28;20028;-74
2023/01/05 02:13:59;;;;;;;6.95;4.68;;;;;;;;;;5033138;28;20021;-74
2023/01/05 02:16:44;;;;;;;6.85;5.10;;;;;;;;;;5031739;28;20044;-74
2023/01/05 02:19:29;;;;;;;7.70;4.60;;;;;;;;;;5031632;28;20382;-74
2023/01/05 02:22:01;;;;;;;6.55;4.70;;;;;;;;;;5031461;28;20162;-74
2023/01/05 02:24:39;;;;;;;5.07;4.55;;;;;;;;;;5033651;28;20140;-74
2023/01/05 02:27:28;;;;;;;7.30;4.90;;;;;;;;;;5037284;28;20070;-74
2023/01/05 02:30:04;;;;;;;6.38;4.90;;;;;;;;;;5036641;28;20594;-73
2023/01/05 02:32:30;;;;;;;7.72;4.63;;;;;;;;;;5034697;28;20021;-74
2023/01/05 02:35:05;;;;;;;9.02;4.78;;;;;;;;;;5035377;28;20035;-74
2023/01/05 02:37:36;;;;;;;8.10;4.72;;;;;;;;;;5030809;28;20721;-73
2023/01/05 02:40:06;;;;;;;5.60;4.75;;;;;;;;;;5036006;28;20086;-74
2023/01/05 02:42:34;;;;;;;5.45;4.63;;;;;;;;;;5033413;28;20029;-73
2023/01/05 02:45:01;;;;;;;5.68;4.75;;;;;;;;;;5034809;28;20040;-73
2023/01/05 02:47:27;;;;;;;6.57;4.78;;;;;;;;;;5035677;28;20021;-73
2023/01/05 02:50:06;;;;;;;7.57;4.95;;;;;;;;;;5034524;28;20021;-73
2023/01/05 02:52:39;;;;;;;6.15;4.80;;;;;;;;;;5034321;28;20555;-73
2023/01/05 02:55:07;;;;;;;6.70;4.50;;;;;;;;;;5032400;28;20389;-73
2023/01/05 02:57:46;;;;;;;5.68;4.25;;;;;;;;;;5036323;28;20029;-73
2023/01/05 03:00:21;;;;;;;8.27;4.90;;;;;;;;;;5037363;28;20036;-73
2023/01/05 03:02:49;;;;;;;9.65;4.60;;;;;;;;;;5035572;28;20759;-73
2023/01/05 03:05:19;;;;;;;7.18;4.80;;;;;;;;;;5037233;28;20501;-73
2023/01/05 03:07:46;;;;;;;6.32;4.53;;;;;;;;;;5038568;28;20374;-73
2023/01/05 03:15:46;;;;;;;13.18;4.95;;;;;;;;;;5037198;28;20154;-73
2023/01/05 03:18:15;;;;;;;7.22;4.55;;;;;;;;;;5041565;28;20804;-73
2023/01/05 03:20:43;;;;;;;5.72;4.45;;;;;;;;;;5041111;28;20028;-73
2023/01/05 03:37:46;;;;;;;8.52;4.30;;;;;;;;;;5038603;28;20450;-73
2023/01/05 03:40:16;;;;;;;5.38;4.22;;;;;;;;;;5033720;28;20478;-73
2023/01/05 03:42:43;;;;;;;6.10;4.53;;;;;;;;;;5040433;28;20397;-73
2023/01/05 03:45:09;;;;;;;5.45;4.70;;;;;;;;;;5042202;28;20045;-73
2023/01/05 03:47:36;;;;;;;5.93;4.28;;;;;;;;;;5037691;28;20025;-73
2023/01/05 03:50:02;;;;;;;6.18;4.30;;;;;;;;;;5035554;28;20092;-73
2023/01/05 03:52:28;;;;;;;7.10;4.72;;;;;;;;;;5037389;28;20033;-73
2023/01/05 03:54:54;;;;;;;6.88;5.05;;;;;;;;;;5040266;28;20031;-73
2023/01/05 03:57:20;;;;;;;6.32;4.45;;;;;;;;;;5037481;28;20025;-75
2023/01/05 03:59:46;;;;;;;5.03;4.50;;;;;;;;;;5038727;28;20035;-73
2023/01/05 04:02:12;;;;;;;7.25;4.70;;;;;;;;;;5043676;28;20023;-73
2023/01/05 04:04:39;;;;;;;5.25;4.68;;;;;;;;;;5040742;28;20029;-73
2023/01/05 04:07:06;;;;;;;7.45;5.55;;;;;;;;;;5037271;28;20021;-73
2023/01/05 04:09:32;;;;;;;5.55;4.30;;;;;;;;;;5038145;28;20513;-75
2023/01/05 04:11:59;;;;;;;5.85;4.72;;;;;;;;;;5035855;28;20304;-75
2023/01/05 04:14:25;;;;;;;6.68;4.30;;;;;;;;;;5033836;28;20108;-73
2023/01/05 04:16:51;;;;;;;5.07;4.50;;;;;;;;;;5037672;28;20029;-73
2023/01/05 04:19:17;;;;;;;5.80;4.63;;;;;;;;;;5038009;28;20039;-73
2023/01/05 04:21:43;;;;;;;5.80;4.32;;;;;;;;;;5036316;28;20025;-73
2023/01/05 04:24:10;;;;;;;5.85;4.20;;;;;;;;;;5037543;28;20033;-73
2023/01/05 04:26:38;;;;;;;8.48;4.40;;;;;;;;;;5040829;28;20032;-73
2023/01/05 04:29:04;;;;;;;5.60;4.53;;;;;;;;;;5037861;28;20024;-74
2023/01/05 04:31:30;;;;;;;6.53;4.30;;;;;;;;;;5038152;28;20104;-75
2023/01/05 04:33:57;;;;;;;6.57;5.07;;;;;;;;;;5036968;28;20027;-73
2023/01/05 04:36:23;;;;;;;6.38;4.72;;;;;;;;;;5030858;28;20070;-75
2023/01/05 04:38:49;;;;;;;4.95;4.35;;;;;;;;;;5037927;28;20036;-75
2023/01/05 04:41:15;;;;;;;7.32;4.97;;;;;;;;;;5034063;28;20022;-75
2023/01/05 04:43:41;;;;;;;6.82;4.22;;;;;;;;;;5039516;28;20040;-74
2023/01/05 04:46:08;;;;;;;8.20;4.70;;;;;;;;;;5035958;28;20027;-76
2023/01/05 04:48:34;;;;;;;5.97;4.55;;;;;;;;;;5036638;28;20029;-75
2023/01/05 04:51:01;;;;;;;5.05;4.03;;;;;;;;;;5037138;28;20564;-75
2023/01/05 04:53:27;;;;;;;6.50;4.65;;;;;;;;;;5036099;28;20016;-75
2023/01/05 04:55:54;;;;;;;6.72;3.88;;;;;;;;;;5037728;28;20025;-75
2023/01/05 04:58:20;;;;;;;6.00;4.55;;;;;;;;;;5036236;28;20086;-75
2023/01/05 05:00:47;;;;;;;6.75;4.28;;;;;;;;;;5037212;28;20480;-75
2023/01/05 05:03:13;;;;;;;5.93;4.25;;;;;;;;;;5037921;28;20028;-75
2023/01/05 05:05:39;;;;;;;9.13;4.05;;;;;;;;;;5038293;28;20031;-75
2023/01/05 05:08:06;;;;;;;4.95;4.18;;;;;;;;;;5032713;28;20028;-75
2023/01/05 05:10:32;;;;;;;6.18;4.30;;;;;;;;;;5036109;28;20104;-75
2023/01/05 05:12:59;;;;;;;7.40;4.53;;;;;;;;;;5037515;28;20024;-74
2023/01/05 05:15:25;;;;;;;8.68;4.53;;;;;;;;;;5038293;28;20047;-75
2023/01/05 05:17:51;;;;;;;6.45;4.13;;;;;;;;;;5033797;28;20133;-74
2023/01/05 05:20:17;;;;;;;6.53;4.28;;;;;;;;;;5035816;28;20095;-75
2023/01/05 05:22:43;;;;;;;8.40;4.57;;;;;;;;;;5037958;28;20514;-75
2023/01/05 05:25:09;;;;;;;7.15;4.53;;;;;;;;;;5038053;28;20493;-75
2023/01/05 05:27:35;;;;;;;6.38;4.60;;;;;;;;;;5037595;28;20282;-75
2023/01/05 05:30:02;;;;;;;6.38;4.30;;;;;;;;;;5034793;28;20044;-75
2023/01/05 05:32:28;;;;;;;6.25;4.15;;;;;;;;;;5038292;28;20381;-75
2023/01/05 05:34:55;;;;;;;6.45;3.90;;;;;;;;;;5035465;28;20040;-75
2023/01/05 05:37:21;;;;;;;9.63;4.35;;;;;;;;;;5038478;28;20079;-75
2023/01/05 05:39:47;;;;;;;5.03;4.22;;;;;;;;;;5037561;28;20033;-75
2023/01/05 05:42:13;;;;;;;5.72;4.57;;;;;;;;;;5033133;28;20021;-75
2023/01/05 05:44:39;;;;;;;6.70;4.45;;;;;;;;;;5032821;28;20053;-75
2023/01/05 05:47:05;;;;;;;5.93;4.30;;;;;;;;;;5038043;28;20696;-75
2023/01/05 05:49:32;;;;;;;9.50;4.40;;;;;;;;;;5037482;28;20025;-75
2023/01/05 05:51:58;;;;;;;8.77;4.22;;;;;;;;;;5035415;28;20548;-75
2023/01/05 05:54:24;;;;;;;5.47;3.95;;;;;;;;;;5035165;28;20068;-75
2023/01/05 05:56:50;;;;;;;6.78;4.93;;;;;;;;;;5041321;28;20059;-75
2023/01/05 05:59:16;;;;;;;5.60;4.32;;;;;;;;;;5032505;28;20048;-75
2023/01/05 06:01:42;;;;;;;8.18;4.68;;;;;;;;;;5036703;28;20021;-74
2023/01/05 06:04:10;;;;;;;5.95;3.90;;;;;;;;;;5032278;28;20025;-74
2023/01/05 06:06:36;;;;;;;4.95;4.22;;;;;;;;;;5038160;28;20029;-75
2023/01/05 06:09:02;;;;;;;8.20;4.57;;;;;;;;;;5040908;28;20025;-74
2023/01/05 06:11:28;;;;;;;4.70;3.70;;;;;;;;;;5036092;28;20591;-75
2023/01/05 06:13:55;;;;;;;7.93;4.50;;;;;;;;;;5036302;28;20483;-75
2023/01/05 06:16:21;;;;;;;5.70;4.10;;;;;;;;;;5032529;28;20026;-75
2023/01/05 06:18:47;;;;;;;8.80;4.40;;;;;;;;;;5037551;28;20491;-74
2023/01/05 06:21:13;;;;;;;5.32;4.32;;;;;;;;;;5035672;28;20447;-74
2023/01/05 06:23:39;;;;;;;7.40;4.63;;;;;;;;;;5035872;28;20024;-74
2023/01/05 06:26:06;;;;;;;6.75;4.57;;;;;;;;;;5032655;28;20021;-74
2023/01/05 06:28:32;;;;;;;5.78;4.20;;;;;;;;;;5037256;28;20448;-74
2023/01/05 06:30:58;;;;;;;5.35;4.15;;;;;;;;;;5038708;28;20100;-74
2023/01/05 06:33:24;;;;;;;7.90;4.30;;;;;;;;;;5034385;28;20476;-75
2023/01/05 06:35:50;;;;;;;7.00;4.35;;;;;;;;;;5034350;28;20021;-75
2023/01/05 06:38:17;;;;;;;5.50;4.30;;;;;;;;;;5031993;28;20501;-75
2023/01/05 06:40:45;;;;;;;10.32;5.00;;;;;;;;;;5042654;28;20643;-74
2023/01/05 06:43:11;;;;;;;7.15;5.20;;;;;;;;;;5041560;28;20033;-75
2023/01/05 06:45:38;;;;;;;5.63;4.35;;;;;;;;;;5039484;28;20053;-74
2023/01/05 06:48:04;;;;;;;6.90;4.80;;;;;;;;;;5039327;28;20025;-74
2023/01/05 06:50:31;;;;;;;6.15;4.55;;;;;;;;;;5036080;28;20030;-74
2023/01/05 06:52:57;;;;;;;7.70;4.57;;;;;;;;;;5041202;28;20017;-75
2023/01/05 06:55:23;;;;;;;9.00;4.70;;;;;;;;;;5038717;28;20579;-73
2023/01/05 06:57:49;;;;;;;6.45;4.75;;;;;;;;;;5041311;28;20090;-73
2023/01/05 07:00:16;;;;;;;6.15;4.60;;;;;;;;;;5036824;28;20128;-73
2023/01/05 07:02:42;;;;;;;7.82;5.22;;;;;;;;;;5042426;28;20051;-73
2023/01/05 07:05:08;;;;;;;8.45;4.90;;;;;;;;;;5043161;28;20043;-72
2023/01/05 07:07:35;;;;;;;9.77;5.20;;;;;;;;;;5041056;28;20039;-74
2023/01/05 07:10:01;;;;;;;7.18;4.80;;;;;;;;;;5039940;28;20290;-74
2023/01/05 07:12:27;;;;;;;9.82;5.35;;;;;;;;;;5036784;28;20703;-73
2023/01/05 07:14:53;;;;;;;7.03;4.75;;;;;;;;;;5043965;28;20078;-72
2023/01/05 07:17:20;;;;;;;10.98;5.07;;;;;;;;;;5041991;28;20053;-73
2023/01/05 07:19:46;;;;;;;6.53;4.93;;;;;;;;;;5042186;28;20079;-73
2023/01/05 07:22:12;;;;;;;9.00;4.78;;;;;;;;;;5039704;28;20032;-73
2023/01/05 07:24:38;;;;;;;6.07;4.50;;;;;;;;;;5039271;28;20021;-73
2023/01/05 07:27:05;;;;;;;7.05;4.43;;;;;;;;;;5040334;28;20473;-74
2023/01/05 07:29:31;;;;;;;7.78;4.97;;;;;;;;;;5038962;28;20041;-74
2023/01/05 07:31:57;;;;;;;9.05;5.50;;;;;;;;;;5039727;28;20024;-76
2023/01/05 07:34:23;;;;;;;9.25;5.45;;;;;;;;;;5036372;28;20021;-75
2023/01/05 07:36:51;;;;;;;6.85;5.13;;;;;;;;;;5043533;28;20377;-73
2023/01/05 07:39:18;;;;;;;6.70;5.47;;;;;;;;;;5041026;28;20037;-76
2023/01/05 07:41:44;;;;;;;7.93;5.47;;;;;;;;;;5039658;28;20025;-75
2023/01/05 07:44:11;;;;;;;7.38;5.10;;;;;;;;;;5035295;28;20562;-75
2023/01/05 07:46:37;;;;;;;8.52;4.70;;;;;;;;;;5036596;28;20026;-76
2023/01/05 07:49:03;;;;;;;9.02;4.88;;;;;;;;;;5042010;28;20552;-77
2023/01/05 07:51:29;;;;;;;10.02;5.07;;;;;;;;;;5041122;28;20070;-76
2023/01/05 07:53:56;;;;;;;7.10;4.88;;;;;;;;;;5041966;28;20028;-76
2023/01/05 07:56:22;;;;;;;8.57;5.55;;;;;;;;;;5042477;28;20377;-77
2023/01/05 07:58:51;;;;;;;7.05;4.88;;;;;;;;;;5040273;28;20063;-74
2023/01/05 08:01:18;;;;;;;5.93;4.70;;;;;;;;;;5043377;28;20055;-76
2023/01/05 08:03:45;;;;;;;5.93;5.00;;;;;;;;;;5038108;28;20029;-75
2023/01/05 08:06:12;;;;;;;5.65;4.63;;;;;;;;;;5038766;28;20017;-75
2023/01/05 08:08:39;;;;;;;8.20;4.85;;;;;;;;;;5039417;28;20021;-76
2023/01/05 08:11:06;;;;;;;5.50;4.22;;;;;;;;;;5041231;28;20060;-75
2023/01/05 08:16:17;;;;;;;5.95;4.75;;;;;;;;;;5037022;28;20040;-76
2023/01/05 08:18:44;;;;;;;5.82;4.32;;;;;;;;;;5039693;28;20120;-76
2023/01/05 08:21:10;;;;;;;5.22;4.10;;;;;;;;;;5036494;28;20040;-77
2023/01/05 08:23:37;;;;;;;7.10;4.53;;;;;;;;;;5041504;28;20040;-76
2023/01/05 08:26:07;;;;;;;5.55;4.45;;;;;;;;;;5039328;28;20021;-76
2023/01/05 08:28:36;;;;;;;5.32;4.43;;;;;;;;;;5038232;28;20035;-77
2023/01/05 08:31:03;;;;;;;4.70;4.22;;;;;;;;;;5039476;28;20403;-77
2023/01/05 08:33:30;;;;;;;6.60;5.05;;;;;;;;;;5042266;28;20029;-76
2023/01/05 08:35:56;;;;;;;6.28;4.53;;;;;;;;;;5039046;28;20104;-76
2023/01/05 08:38:22;;;;;;;5.15;4.60;;;;;;;;;;5040229;28;20196;-78
2023/01/05 08:40:49;;;;;;;5.70;4.65;;;;;;;;;;5039002;28;20092;-75
2023/01/05 08:43:15;;;;;;;6.20;4.80;;;;;;;;;;5038940;28;20090;-76
2023/01/05 08:45:41;;;;;;;6.45;4.60;;;;;;;;;;5041559;28;20024;-76
2023/01/05 08:48:08;;;;;;;5.60;4.05;;;;;;;;;;5039867;28;20033;-77
2023/01/05 08:50:35;;;;;;;6.40;4.75;;;;;;;;;;5036972;28;20029;-75
2023/01/05 08:53:01;;;;;;;22.40;5.47;;;;;;;;;;5039462;28;20461;-76
2023/01/05 08:55:27;;;;;;;12.60;7.30;;;;;;;;;;5036570;28;20111;-75
2023/01/05 08:57:55;;;;;;;11.93;7.25;;;;;;;;;;5040762;28;20051;-77
2023/01/05 09:00:21;;;;;;;15.60;8.32;;;;;;;;;;5037771;28;20048;-76
2023/01/05 09:02:48;;;;;;;11.50;7.65;;;;;;;;;;5034595;28;20594;-75
2023/01/05 09:05:14;;;;;;;11.18;7.00;;;;;;;;;;5036341;28;20033;-77
2023/01/05 09:07:40;;;;;;;13.90;7.80;;;;;;;;;;5039642;28;20041;-76
2023/01/05 09:10:07;;;;;;;11.02;7.68;;;;;;;;;;5041622;28;20099;-76
2023/01/05 09:12:36;;;;;;;9.43;6.88;;;;;;;;;;5037552;28;20029;-77
2023/01/05 09:15:03;;;;;;;8.75;6.32;;;;;;;;;;5037437;28;20061;-76
2023/01/05 09:17:29;;;;;;;13.43;6.43;;;;;;;;;;5038303;28;20112;-76
2023/01/05 09:19:55;;;;;;;8.43;5.30;;;;;;;;;;5038180;28;20037;-76
2023/01/05 09:22:21;;;;;;;7.85;5.38;;;;;;;;;;5040238;28;20025;-76
2023/01/05 09:24:47;;;;;;;8.65;5.65;;;;;;;;;;5038788;28;20029;-76
2023/01/05 09:27:14;;;;;;;24.92;12.57;;;;;;;;;;5037826;28;20017;-75
2023/01/05 09:29:40;;;;;;;19.48;10.95;;;;;;;;;;5039912;28;20075;-75
2023/01/05 09:32:06;;;;;;;11.02;6.38;;;;;;;;;;5039745;28;20098;-77
2023/01/05 09:34:33;;;;;;;8.35;5.97;;;;;;;;;;5037508;28;20021;-77
2023/01/05 09:36:59;;;;;;;8.90;6.20;;;;;;;;;;5036318;28;20031;-78
2023/01/05 09:39:25;;;;;;;7.95;4.80;;;;;;;;;;5037865;28;20111;-77
2023/01/05 09:41:57;;;;;;;6.75;4.60;;;;;;;;;;5038171;28;20572;-77
2023/01/05 09:44:41;;;;;;;10.85;6.53;;;;;;;;;;5039850;28;20425;-76
2023/01/05 09:47:13;;;;;;;11.93;9.18;;;;;;;;;;5038057;28;20230;-77
2023/01/05 09:49:40;;;;;;;13.77;8.68;;;;;;;;;;5038646;28;20021;-77
2023/01/05 09:52:09;;;;;;;11.23;8.45;;;;;;;;;;5041764;28;20025;-77
2023/01/05 09:54:36;;;;;;;10.63;8.15;;;;;;;;;;5037134;28;20021;-77
2023/01/05 09:57:03;;;;;;;11.40;9.13;;;;;;;;;;5038013;28;20482;-77
2023/01/05 09:59:32;;;;;;;10.75;6.47;;;;;;;;;;5035269;28;20614;-76
2023/01/05 10:01:59;;;;;;;6.82;5.15;;;;;;;;;;5036941;28;20043;-77
2023/01/05 10:04:27;;;;;;;5.93;5.32;;;;;;;;;;5038547;28;20040;-77
2023/01/05 10:06:57;;;;;;;6.03;4.30;;;;;;;;;;5038938;28;20027;-76
2023/01/05 10:09:24;;;;;;;6.53;4.95;;;;;;;;;;5033955;28;20070;-77
2023/01/05 10:15:32;;;;;;;6.57;5.90;;;;;;;;;;5039027;28;20116;-77
2023/01/05 10:17:59;;;;;;;7.50;4.78;;;;;;;;;;5033308;28;20041;-78
2023/01/05 10:20:36;;;;;;;6.80;5.05;;;;;;;;;;5034842;28;20032;-77
2023/01/05 10:23:02;;;;;;;7.63;5.40;;;;;;;;;;5036042;28;20022;-77
2023/01/05 10:25:31;;;;;;;7.20;5.68;;;;;;;;;;5039111;28;20104;-77
2023/01/05 10:28:08;;;;;;;7.45;5.38;;;;;;;;;;5038302;28;20025;-77
2023/01/05 10:30:40;;;;;;;10.55;5.90;;;;;;;;;;5033924;28;20045;-78
2023/01/05 10:33:22;;;;;;;6.68;4.93;;;;;;;;;;5035438;28;20096;-78
2023/01/05 10:35:57;;;;;;;6.03;4.50;;;;;;;;;;5032342;28;20041;-77
2023/01/05 10:38:42;;;;;;;9.02;5.78;;;;;;;;;;5038032;28;20420;-77
2023/01/05 10:41:14;;;;;;;8.13;5.50;;;;;;;;;;5036279;28;20654;-77
2023/01/05 10:43:46;;;;;;;6.68;4.90;;;;;;;;;;5035688;28;20032;-72
2023/01/05 10:46:13;;;;;;;10.23;5.15;;;;;;;;;;5037546;28;20100;-77
2023/01/05 10:48:40;;;;;;;10.02;5.38;;;;;;;;;;5039628;28;20212;-76
2023/01/05 10:51:07;;;;;;;8.85;5.75;;;;;;;;;;5039257;28;20032;-77
2023/01/05 10:53:35;;;;;;;13.35;6.07;;;;;;;;;;5034095;28;20112;-77
2023/01/05 10:56:20;;;;;;;8.13;5.97;;;;;;;;;;5036488;28;20025;-77
2023/01/05 10:58:46;;;;;;;8.15;5.50;;;;;;;;;;5042476;28;20067;-73
2023/01/05 11:01:26;;;;;;;7.95;4.90;;;;;;;;;;5038473;28;20057;-74
2023/01/05 11:04:02;;;;;;;6.97;5.00;;;;;;;;;;5036547;28;20017;-73
2023/01/05 11:06:29;;;;;;;8.88;4.72;;;;;;;;;;5035213;28;20028;-73
2023/01/05 11:09:06;;;;;;;5.82;4.82;;;;;;;;;;5037352;28;20013;-73
2023/01/05 11:11:32;;;;;;;7.80;5.07;;;;;;;;;;5037851;28;20021;-72
2023/01/05 11:13:59;;;;;;;8.95;5.50;;;;;;;;;;5035464;28;20044;-74
2023/01/05 11:16:26;;;;;;;8.52;5.72;;;;;;;;;;5037316;28;20481;-73
2023/01/05 11:18:54;;;;;;;8.70;5.90;;;;;;;;;;5033147;28;20040;-77
2023/01/05 11:21:30;;;;;;;7.72;5.18;;;;;;;;;;5037670;28;20057;-77
2023/01/05 11:23:58;;;;;;;7.50;5.80;;;;;;;;;;5037788;28;20033;-76
2023/01/05 11:26:26;;;;;;;9.05;5.72;;;;;;;;;;5039639;28;20021;-77
2023/01/05 11:29:01;;;;;;;7.70;5.68;;;;;;;;;;5037943;28;20029;-77
2023/01/05 11:31:41;;;;;;;6.55;4.78;;;;;;;;;;5039181;28;20119;-77
2023/01/05 11:34:22;;;;;;;10.02;5.65;;;;;;;;;;5040471;28;20418;-76
2023/01/05 11:36:54;;;;;;;6.37;5.07;;;;;;;;;;5038656;28;20032;-75
2023/01/05 11:39:25;;;;;;;7.22;5.85;;;;;;;;;;5039499;28;20041;-75
2023/01/05 11:41:51;;;;;;;6.82;5.53;;;;;;;;;;5040204;28;20350;-75
2023/01/05 11:44:20;;;;;;;8.40;5.53;;;;;;;;;;5044885;28;20029;-75
2023/01/05 11:46:47;;;;;;;9.90;6.15;;;;;;;;;;5039676;28;20068;-74
2023/01/05 11:49:18;;;;;;;10.23;6.30;;;;;;;;;;5039801;28;20020;-75
2023/01/05 11:51:44;;;;;;;10.10;6.57;;;;;;;;;;5041400;28;20025;-75
2023/01/05 11:54:28;;;;;;;9.27;5.88;;;;;;;;;;5041455;28;20083;-75
2023/01/05 11:57:13;;;;;;;8.38;6.03;;;;;;;;;;5037801;28;20081;-75
2023/01/05 11:59:39;;;;;;;9.02;6.03;;;;;;;;;;5040126;28;20443;-76
2023/01/05 12:02:24;;;;;;;9.48;5.97;;;;;;;;;;5037498;28;20578;-75
2023/01/05 12:05:02;;;;;;;9.35;6.45;;;;;;;;;;5037823;28;20017;-75
2023/01/05 12:07:30;;;;;;;8.10;5.43;;;;;;;;;;5041478;28;20032;-75
2023/01/05 12:09:59;;;;;;;10.57;6.78;;;;;;;;;;5041131;28;20622;-76
2023/01/05 12:12:35;;;;;;;8.10;5.72;;;;;;;;;;5038127;28;20064;-76
2023/01/05 12:15:20;;;;;;;7.20;6.00;;;;;;;;;;5037900;28;20021;-75
2023/01/05 12:18:01;;;;;;;8.20;5.85;;;;;;;;;;5040963;28;20037;-75
2023/01/05 12:20:33;;;;;;;7.22;5.43;;;;;;;;;;5039777;28;20033;-74
2023/01/05 12:23:26;;;;;;;9.07;6.13;;;;;;;;;;5038500;28;20020;-75
2023/01/05 12:25:55;;;;;;;8.43;5.90;;;;;;;;;;5026475;28;20507;-75
2023/01/05 12:28:40;;;;;;;6.20;5.43;;;;;;;;;;5040945;28;20025;-76
2023/01/05 12:31:19;;;;;;;6.55;4.97;;;;;;;;;;5037103;28;20057;-75
2023/01/05 12:34:04;;;;;;;6.32;4.93;;;;;;;;;;5038203;28;20060;-75
2023/01/05 12:36:45;;;;;;;7.07;4.75;;;;;;;;;;5035911;28;20017;-76
2023/01/05 12:39:50;;;;;;;9.20;6.80;;;;;;;;;;5039378;28;20029;-75
2023/01/05 12:42:16;;;;;;;9.48;5.88;;;;;;;;;;5035732;28;20040;-76
2023/01/05 12:44:48;;;;;;;9.50;5.72;;;;;;;;;;5037098;28;20108;-75
2023/01/05 12:47:35;;;;;;;10.75;6.10;;;;;;;;;;5035311;28;20959;-75
2023/01/05 12:50:05;;;;;;;9.77;7.25;;;;;;;;;;5038527;28;20029;-75
2023/01/05 12:52:38;;;;;;;23.20;13.23;;;;;;;;;;5041594;28;20120;-75
2023/01/05 12:55:07;;;;;;;22.80;14.30;;;;;;;;;;5038028;28;20013;-75
2023/01/05 12:57:36;;;;;;;30.33;14.95;;;;;;;;;;5040387;28;20112;-75
2023/01/05 13:00:10;;;;;;;29.77;16.20;;;;;;;;;;5038298;28;20381;-75
2023/01/05 13:02:48;;;;;;;37.35;18.20;;;;;;;;;;5039939;28;20025;-77
2023/01/05 13:05:23;;;;;;;26.23;13.98;;;;;;;;;;5035142;28;20052;-77
2023/01/05 13:07:55;;;;;;;24.13;13.60;;;;;;;;;;5040980;28;20099;-77
2023/01/05 13:10:33;;;;;;;23.02;12.23;;;;;;;;;;5040140;28;20025;-77
2023/01/05 13:13:01;;;;;;;24.90;12.32;;;;;;;;;;5036512;28;20037;-76
2023/01/05 13:15:30;;;;;;;24.98;13.32;;;;;;;;;;5040630;28;20013;-75
2023/01/05 13:17:58;;;;;;;24.83;11.30;;;;;;;;;;5034137;28;20031;-76
2023/01/05 13:20:41;;;;;;;9.80;6.57;;;;;;;;;;5038643;28;20519;-75
2023/01/05 13:23:16;;;;;;;8.40;5.55;;;;;;;;;;5038014;28;20028;-75
2023/01/05 13:25:51;;;;;;;7.43;5.45;;;;;;;;;;5036852;28;20458;-75
2023/01/05 13:28:18;;;;;;;7.47;5.28;;;;;;;;;;5038027;28;20036;-76
2023/01/05 13:30:52;;;;;;;10.68;5.60;;;;;;;;;;5038415;28;20041;-75
2023/01/05 13:33:24;;;;;;;7.45;5.10;;;;;;;;;;5034982;28;20043;-75
2023/01/05 13:36:05;;;;;;;6.80;5.35;;;;;;;;;;5036815;28;20063;-75
2023/01/05 13:38:34;;;;;;;8.93;5.47;;;;;;;;;;5040930;28;20037;-75
2023/01/05 13:41:05;;;;;;;7.78;5.60;;;;;;;;;;5037471;28;20045;-74
2023/01/05 13:43:37;;;;;;;13.68;7.32;;;;;;;;;;5037577;28;20047;-76
2023/01/05 13:46:25;;;;;;;13.32;7.15;;;;;;;;;;5039278;28;20534;-74
2023/01/05 13:48:58;;;;;;;30.48;16.30;;;;;;;;;;5035138;28;20017;-77
2023/01/05 13:51:24;;;;;;;42.35;21.02;;;;;;;;;;5033531;28;20017;-77
2023/01/05 13:53:52;;;;;;;113.35;50.00;;;;;;;;;;5036093;28;20025;-76
2023/01/05 13:56:23;;;;;;;135.27;56.47;;;;;;;;;;5029683;28;20509;-76
2023/01/05 13:58:51;;;;;;;119.50;52.07;;;;;;;;;;5033480;28;20037;-75
2023/01/05 14:01:19;;;;;;;108.95;48.35;;;;;;;;;;5035951;28;20303;-76
2023/01/05 14:03:56;;;;;;;110.90;47.28;;;;;;;;;;5028788;28;20031;-77
2023/01/05 14:06:24;;;;;;;63.55;30.17;;;;;;;;;;5030978;28;20821;-75
2023/01/05 14:08:55;;;;;;;64.55;32.55;;;;;;;;;;5036359;28;20368;-75
2023/01/05 14:11:23;;;;;;;60.10;32.28;;;;;;;;;;5034707;28;20091;-76
2023/01/05 14:13:50;;;;;;;53.17;25.88;;;;;;;;;;5036771;28;20048;-72
2023/01/05 14:16:34;;;;;;;62.30;29.30;;;;;;;;;;5032306;28;20026;-75
2023/01/05 14:19:13;;;;;;;72.38;34.95;;;;;;;;;;5028367;28;20017;-76
2023/01/05 14:21:58;;;;;;;80.68;36.97;;;;;;;;;;5034644;28;20895;-75
2023/01/05 14:24:30;;;;;;;85.50;34.47;;;;;;;;;;5027459;28;20037;-76
2023/01/05 14:27:01;;;;;;;47.83;22.98;;;;;;;;;;5037668;28;20079;-75
2023/01/05 14:29:46;;;;;;;42.10;19.85;;;;;;;;;;5032407;28;20036;-76
2023/01/05 14:32:32;;;;;;;36.72;18.48;;;;;;;;;;5036577;28;20028;-77
2023/01/05 14:35:11;;;;;;;39.30;18.73;;;;;;;;;;5035876;28;20029;-76
2023/01/05 14:37:39;;;;;;;44.65;22.75;;;;;;;;;;5033324;28;20052;-75
2023/01/05 14:40:35;;;;;;;45.78;25.35;;;;;;;;;;5032504;28;20110;-75
2023/01/05 14:43:02;;;;;;;59.00;28.65;;;;;;;;;;5029806;28;20497;-75
2023/01/05 14:45:30;;;;;;;52.70;25.42;;;;;;;;;;5034648;28;20040;-76
2023/01/05 14:47:58;;;;;;;44.50;24.00;;;;;;;;;;5036037;28;20063;-75
2023/01/05 14:50:27;;;;;;;38.45;19.60;;;;;;;;;;5034939;28;20157;-76
2023/01/05 14:53:10;;;;;;;37.28;20.38;;;;;;;;;;5033769;28;20465;-76
2023/01/05 14:55:38;;;;;;;45.97;23.63;;;;;;;;;;5034307;28;20851;-76
2023/01/05 14:58:05;;;;;;;47.90;24.58;;;;;;;;;;5037650;28;20599;-75
2023/01/05 15:00:34;;;;;;;38.65;19.70;;;;;;;;;;5033439;28;20033;-76
2023/01/05 15:03:07;;;;;;;32.63;16.45;;;;;;;;;;5038755;28;20025;-75
2023/01/05 15:05:34;;;;;;;22.77;12.02;;;;;;;;;;5038996;28;20039;-75
2023/01/05 15:08:11;;;;;;;39.67;21.55;;;;;;;;;;5040941;28;20382;-75
2023/01/05 15:10:56;;;;;;;32.80;18.10;;;;;;;;;;5035017;28;20060;-76
2023/01/05 15:13:22;;;;;;;19.45;11.32;;;;;;;;;;5036974;28;20029;-76
2023/01/05 15:16:15;;;;;;;20.48;10.60;;;;;;;;;;5035041;28;20167;-76
2023/01/05 15:18:59;;;;;;;12.05;7.10;;;;;;;;;;5040048;28;20505;-77
2023/01/05 15:21:44;;;;;;;12.52;6.72;;;;;;;;;;5036292;28;20032;-79
2023/01/05 15:24:10;;;;;;;9.13;5.53;;;;;;;;;;5036771;28;20029;-75
2023/01/05 15:26:36;;;;;;;7.10;5.45;;;;;;;;;;5040545;28;20163;-76
2023/01/05 15:29:05;;;;;;;5.47;4.63;;;;;;;;;;5039498;28;20739;-75
2023/01/05 15:31:36;;;;;;;6.97;4.38;;;;;;;;;;5039094;28;20049;-75